Mamolino 2072 — 9HB4203 — position and weather

sailwx.info

Track history (hours):
 
Tides and Currents Weather Stations Pressure Air Temp Water Temp Dewpoint Dewpoint Depression Visibility Wind Speed Wind Dir Waves Ship Positions

Mamolino 2072

Last reported at 2017-Sep-20 15:31 UTC. Time now 2017-Sep-22 02:40 UTC.
Position S 05°05' E 011°33'.

Length 20 m; draft 1 m.

Type: Passenger vessel. MMSI: 229990000.

Date/timePositionNaut miles runAvg speedWind from/ knotsBaromVisibWave heightAir tempDewpointWater temp
2017-Sep-20 15:31S 05°05' E 011°33'122.9
2017-Sep-20 15:29S 05°06' E 011°32'1122.9
2017-Sep-20 15:00S 05°14' E 011°25'5 5.3
2017-Sep-20 14:00S 05°19' E 011°23'0 0.0
2017-Sep-20 13:30S 05°19' E 011°23'0 0.0
2017-Sep-20 13:00S 05°19' E 011°23'0 0.0
2017-Sep-20 12:30S 05°19' E 011°23'0 0.1
2017-Sep-20 12:00S 05°19' E 011°23'0 0.1
2017-Sep-20 11:30S 05°19' E 011°23'0 0.1
2017-Sep-20 11:00S 05°19' E 011°23'0 0.1
2017-Sep-20 10:30S 05°19' E 011°23'0 0.0
2017-Sep-20 10:00S 05°19' E 011°23'0 0.1
2017-Sep-20 09:30S 05°19' E 011°23'2 4.0
2017-Sep-20 09:00S 05°17' E 011°23'1019.3
2017-Sep-20 08:30S 05°10' E 011°29'10 0.6
2017-Sep-19 13:48S 05°02' E 011°36'723.3
2017-Sep-19 13:30S 05°07' E 011°32'1123.2
2017-Sep-19 13:00S 05°16' E 011°24'1 2.6
2017-Sep-19 12:28S 05°17' E 011°23'3 6.5
2017-Sep-19 12:00S 05°17' E 011°20'1 1.4
2017-Sep-19 11:30S 05°17' E 011°21'1 1.3
2017-Sep-19 11:00S 05°17' E 011°22'1 1.2
2017-Sep-19 10:30S 05°17' E 011°22'1 1.1
2017-Sep-19 10:00S 05°17' E 011°23'1 1.2
2017-Sep-19 09:30S 05°17' E 011°23'3 5.3
2017-Sep-19 09:00S 05°15' E 011°25'1223.9
2017-Sep-19 08:30S 05°06' E 011°32'10 0.6
2017-Sep-18 15:59S 05°16' E 011°34'3 0.1
2017-Sep-16 13:29S 05°16' E 011°31'714.3
2017-Sep-16 12:59S 05°22' E 011°27'0 0.1
2017-Sep-16 12:30S 05°22' E 011°27'0 0.0
2017-Sep-16 12:00S 05°22' E 011°27'0 0.0
2017-Sep-16 11:30S 05°22' E 011°27'0 0.0
2017-Sep-16 10:58S 05°22' E 011°27'1 2.8
2017-Sep-16 10:30S 05°23' E 011°27'1 2.6
2017-Sep-16 10:00S 05°22' E 011°27'0 0.0
2017-Sep-16 09:30S 05°22' E 011°27'0 0.0
2017-Sep-16 08:59S 05°22' E 011°27'0 0.0
2017-Sep-16 08:30S 05°22' E 011°26'1 2.4
2017-Sep-16 07:57S 05°23' E 011°27'3 7.1
2017-Sep-16 07:30S 05°20' E 011°28'917.6
2017-Sep-16 06:59S 05°12' E 011°33'12 0.6
2017-Sep-15 09:46S 05°00' E 011°30'1 1.6
2017-Sep-15 09:14S 05°01' E 011°30'623.6
2017-Sep-15 08:59S 05°07' E 011°28'1121.3
2017-Sep-15 08:28S 05°17' E 011°23'1021.8
2017-Sep-15 08:00S 05°08' E 011°27'11 0.3
2017-Sep-13 14:36S 05°16' E 011°34'0 1.9
2017-Sep-13 14:26S 05°16' E 011°34'0 0.0
2017-Sep-13 09:40S 05°16' E 011°34'0 1.1
2017-Sep-13 09:28S 05°16' E 011°34'914.1
2017-Sep-13 08:51S 05°08' E 011°37'4 0.2
2017-Sep-12 11:43S 05°05' E 011°35'525.2
2017-Sep-12 11:30S 05°07' E 011°30'1122.6
2017-Sep-12 11:00S 05°11' E 011°19'0 0.8
2017-Sep-12 10:28S 05°11' E 011°19'0 0.7
2017-Sep-12 09:58S 05°12' E 011°19'1 1.2
2017-Sep-12 09:30S 05°12' E 011°19'612.0
2017-Sep-12 08:58S 05°08' E 011°23'  
Track history (hours):
 
Tides and Currents Weather Stations Pressure Air Temp Water Temp Dewpoint Dewpoint Depression Visibility Wind Speed Wind Dir Waves Ship Positions

Mamolino 2072

Last reported at 2017-Sep-20 15:31 UTC. Time now 2017-Sep-22 02:40 UTC.
Position S 05°05' E 011°33'.

Length 20 m; draft 1 m.

Type: Passenger vessel. MMSI: 229990000.

Date/timePositionNaut miles runAvg speedWind from/ knotsBaromVisibWave heightAir tempDewpointWater temp
2017-Sep-20 15:31S 05°05' E 011°33'122.9
2017-Sep-20 15:29S 05°06' E 011°32'1122.9
2017-Sep-20 15:00S 05°14' E 011°25'5 5.3
2017-Sep-20 14:00S 05°19' E 011°23'0 0.0
2017-Sep-20 13:30S 05°19' E 011°23'0 0.0
2017-Sep-20 13:00S 05°19' E 011°23'0 0.0
2017-Sep-20 12:30S 05°19' E 011°23'0 0.1
2017-Sep-20 12:00S 05°19' E 011°23'0 0.1
2017-Sep-20 11:30S 05°19' E 011°23'0 0.1
2017-Sep-20 11:00S 05°19' E 011°23'0 0.1
2017-Sep-20 10:30S 05°19' E 011°23'0 0.0
2017-Sep-20 10:00S 05°19' E 011°23'0 0.1
2017-Sep-20 09:30S 05°19' E 011°23'2 4.0
2017-Sep-20 09:00S 05°17' E 011°23'1019.3
2017-Sep-20 08:30S 05°10' E 011°29'10 0.6
2017-Sep-19 13:48S 05°02' E 011°36'723.3
2017-Sep-19 13:30S 05°07' E 011°32'1123.2
2017-Sep-19 13:00S 05°16' E 011°24'1 2.6
2017-Sep-19 12:28S 05°17' E 011°23'3 6.5
2017-Sep-19 12:00S 05°17' E 011°20'1 1.4
2017-Sep-19 11:30S 05°17' E 011°21'1 1.3
2017-Sep-19 11:00S 05°17' E 011°22'1 1.2
2017-Sep-19 10:30S 05°17' E 011°22'1 1.1
2017-Sep-19 10:00S 05°17' E 011°23'1 1.2
2017-Sep-19 09:30S 05°17' E 011°23'3 5.3
2017-Sep-19 09:00S 05°15' E 011°25'1223.9
2017-Sep-19 08:30S 05°06' E 011°32'10 0.6
2017-Sep-18 15:59S 05°16' E 011°34'3 0.1
2017-Sep-16 13:29S 05°16' E 011°31'714.3
2017-Sep-16 12:59S 05°22' E 011°27'0 0.1
2017-Sep-16 12:30S 05°22' E 011°27'0 0.0
2017-Sep-16 12:00S 05°22' E 011°27'0 0.0
2017-Sep-16 11:30S 05°22' E 011°27'0 0.0
2017-Sep-16 10:58S 05°22' E 011°27'1 2.8
2017-Sep-16 10:30S 05°23' E 011°27'1 2.6
2017-Sep-16 10:00S 05°22' E 011°27'0 0.0
2017-Sep-16 09:30S 05°22' E 011°27'0 0.0
2017-Sep-16 08:59S 05°22' E 011°27'0 0.0
2017-Sep-16 08:30S 05°22' E 011°26'1 2.4
2017-Sep-16 07:57S 05°23' E 011°27'3 7.1
2017-Sep-16 07:30S 05°20' E 011°28'917.6
2017-Sep-16 06:59S 05°12' E 011°33'12 0.6
2017-Sep-15 09:46S 05°00' E 011°30'1 1.6
2017-Sep-15 09:14S 05°01' E 011°30'623.6
2017-Sep-15 08:59S 05°07' E 011°28'1121.3
2017-Sep-15 08:28S 05°17' E 011°23'1021.8
2017-Sep-15 08:00S 05°08' E 011°27'11 0.3
2017-Sep-13 14:36S 05°16' E 011°34'0 1.9
2017-Sep-13 14:26S 05°16' E 011°34'0 0.0
2017-Sep-13 09:40S 05°16' E 011°34'0 1.1
2017-Sep-13 09:28S 05°16' E 011°34'914.1
2017-Sep-13 08:51S 05°08' E 011°37'4 0.2
2017-Sep-12 11:43S 05°05' E 011°35'525.2
2017-Sep-12 11:30S 05°07' E 011°30'1122.6
2017-Sep-12 11:00S 05°11' E 011°19'0 0.8
2017-Sep-12 10:28S 05°11' E 011°19'0 0.7
2017-Sep-12 09:58S 05°12' E 011°19'1 1.2
2017-Sep-12 09:30S 05°12' E 011°19'612.0
2017-Sep-12 08:58S 05°08' E 011°23'  

Dump ship's entire track history